Time;durP1;ratioP1;P1;durP2;ratioP2;P2;SDS_P1;SDS_P2;PMS_P1;PMS_P2;Temp;Humidity;BMP_temperature;BMP_pressure;BME280_temperature;BME280_humidity;BME280_pressure;Samples;Min_cycle;Max_cycle;Signal;HPM_P1;HPM_P2
2021/11/04 01:37:41;;;;;;;40.12;23.65;;;;;;;7.42;92.98;144081.97;1834961;77;22157;-59
2021/11/04 01:40:16;;;;;;;37.90;22.30;;;;;;;7.41;93.51;144080.73;1853530;77;22128;-59
2021/11/04 01:42:59;;;;;;;35.28;22.45;;;;;;;7.43;93.93;144084.45;1834172;77;22185;-60
2021/11/04 01:45:34;;;;;;;40.40;24.02;;;;;;;7.43;94.16;144085.75;1853562;77;22131;-57
2021/11/04 01:48:11;;;;;;;38.25;24.05;;;;;;;7.46;94.25;144093.23;1837840;77;28053;-58
2021/11/04 01:50:47;;;;;;;37.28;23.38;;;;;;;7.51;94.23;144105.75;1853488;77;22157;-58
2021/11/04 01:53:23;;;;;;;38.75;22.20;;;;;;;7.51;94.35;144104.52;1835023;77;22143;-57
2021/11/04 01:55:58;;;;;;;35.80;22.95;;;;;;;7.52;94.56;144108.23;1835156;77;22152;-60
2021/11/04 01:58:33;;;;;;;39.13;23.57;;;;;;;7.54;94.54;144113.25;1835130;77;22124;-61
2021/11/04 02:01:08;;;;;;;34.83;23.22;;;;;;;7.54;94.59;144113.25;1837876;77;38783;-57
2021/11/04 02:04:04;;;;;;;34.27;22.13;;;;;;;7.58;94.59;144123.28;1835047;77;22128;-56
2021/11/04 02:06:50;;;;;;;38.30;23.00;;;;;;;7.60;94.60;144128.25;1834995;77;22124;-59
2021/11/04 02:09:41;;;;;;;37.05;23.35;;;;;;;7.63;94.65;144133.25;1853565;77;22188;-57
2021/11/04 02:12:31;;;;;;;34.45;22.27;;;;;;;7.65;94.66;144138.28;1853501;77;22582;-59
2021/11/04 02:15:08;;;;;;;38.13;21.62;;;;;;;7.68;94.67;144145.77;1853544;77;22217;-58
2021/11/04 02:17:44;;;;;;;35.48;23.10;;;;;;;7.72;94.54;144155.80;1834994;77;22124;-60
2021/11/04 02:21:09;;;;;;;39.98;23.85;;;;;;;7.72;94.52;144155.80;1853479;77;22553;-58
2021/11/04 02:24:11;;;;;;;36.53;23.12;;;;;;;7.73;94.50;144158.28;1834983;77;22213;-59
2021/11/04 02:26:51;;;;;;;32.90;22.17;;;;;;;7.74;94.55;144160.81;1834820;77;22218;-59
2021/11/04 02:29:27;;;;;;;31.57;21.37;;;;;;;7.75;94.50;144164.53;1837897;77;27982;-63
2021/11/04 02:32:22;;;;;;;36.28;21.73;;;;;;;7.83;94.27;144184.55;1853517;77;22123;-59
2021/11/04 02:34:59;;;;;;;31.77;20.68;;;;;;;7.87;93.98;144193.34;1834931;77;22173;-58
2021/11/04 02:37:36;;;;;;;32.33;20.30;;;;;;;7.87;93.79;144192.09;1834945;77;22161;-59
2021/11/04 02:40:12;;;;;;;30.60;19.45;;;;;;;7.86;93.72;144190.86;1834970;77;22124;-56
2021/11/04 02:42:50;;;;;;;30.25;19.45;;;;;;;7.88;93.72;144195.83;1853549;77;22147;-59
2021/11/04 02:45:45;;;;;;;31.82;20.27;;;;;;;7.89;93.78;144198.36;1853500;77;22160;-59
2021/11/04 02:48:20;;;;;;;35.73;19.85;;;;;;;7.90;93.96;144200.84;1853558;77;20213;-61
2021/11/04 02:51:21;;;;;;;31.45;21.20;;;;;;;7.90;93.96;144200.84;1843178;78;22171;-61
2021/11/04 02:53:59;;;;;;;34.92;22.35;;;;;;;7.90;94.05;144200.84;1800600;79;22619;-55
2021/11/04 02:56:58;;;;;;;39.67;23.70;;;;;;;7.89;94.25;144198.36;1834755;77;22176;-59
2021/11/04 02:59:33;;;;;;;43.28;26.70;;;;;;;7.89;94.43;144198.36;1835012;77;22164;-58
2021/11/04 03:02:09;;;;;;;44.65;29.27;;;;;;;7.88;94.50;144195.83;1834941;77;20100;-58
2021/11/04 03:04:44;;;;;;;49.10;29.48;;;;;;;7.90;94.61;144200.84;1834972;77;22156;-59
2021/11/04 03:07:20;;;;;;;41.73;26.37;;;;;;;7.92;94.78;144205.86;1853514;77;22123;-60
2021/11/04 03:09:55;;;;;;;43.40;25.68;;;;;;;7.91;94.96;144202.08;1834889;77;22163;-61
2021/11/04 03:12:29;;;;;;;43.55;26.35;;;;;;;7.89;95.23;144198.36;1835002;77;22128;-58
2021/11/04 03:15:12;;;;;;;44.90;27.05;;;;;;;7.87;95.51;144192.09;1815930;79;22179;-58
2021/11/04 03:17:49;;;;;;;44.38;26.50;;;;;;;7.83;95.81;144183.31;1835087;77;22157;-61
2021/11/04 03:20:25;;;;;;;39.90;25.90;;;;;;;7.80;96.13;144175.81;1834908;77;22230;-58
2021/11/04 03:23:01;;;;;;;44.08;26.62;;;;;;;7.79;96.30;144173.33;1853564;77;22223;-61
2021/11/04 03:25:37;;;;;;;41.75;28.50;;;;;;;7.77;96.47;144168.31;1835072;77;22547;-59
2021/11/04 03:28:14;;;;;;;42.13;28.67;;;;;;;7.76;96.57;144165.78;1819497;77;28443;-57
2021/11/04 03:30:50;;;;;;;42.17;28.57;;;;;;;7.79;96.53;144174.56;1835009;77;22183;-58
2021/11/04 03:33:29;;;;;;;39.63;26.00;;;;;;;7.78;96.53;144172.03;1834772;77;22166;-58
2021/11/04 03:36:05;;;;;;;37.33;26.07;;;;;;;7.76;96.61;144165.78;1853548;77;22152;-58
2021/11/04 03:38:43;;;;;;;41.98;26.65;;;;;;;7.71;96.69;144153.27;1834785;77;22208;-60
2021/11/04 03:41:20;;;;;;;38.83;26.20;;;;;;;7.69;96.86;144148.30;1834779;77;22167;-61
2021/11/04 03:43:57;;;;;;;38.28;24.15;;;;;;;7.67;96.86;144143.28;1834747;77;22574;-59
2021/11/04 03:46:34;;;;;;;38.13;24.12;;;;;;;7.66;96.97;144140.75;1853598;77;20312;-55
2021/11/04 03:49:16;;;;;;;38.02;24.43;;;;;;;7.64;97.00;144135.78;1853588;77;22128;-58
2021/11/04 03:51:52;;;;;;;37.45;23.07;;;;;;;7.64;97.04;144135.78;1834965;77;22156;-55
2021/11/04 03:54:47;;;;;;;32.50;23.95;;;;;;;7.63;97.02;144134.50;1819362;77;28004;-62
2021/11/04 03:57:26;;;;;;;34.40;22.62;;;;;;;7.68;96.95;144145.77;1853544;77;22550;-57
2021/11/04 04:00:01;;;;;;;33.78;23.12;;;;;;;7.65;96.84;144139.52;1835010;77;22144;-58
2021/11/04 04:02:37;;;;;;;35.38;23.22;;;;;;;7.64;96.84;144135.78;1819312;77;28024;-59
2021/11/04 04:05:13;;;;;;;33.35;23.02;;;;;;;7.69;96.71;144148.30;1835037;77;22200;-62
2021/11/04 04:07:48;;;;;;;34.65;22.90;;;;;;;7.70;96.53;144150.78;1834965;77;22156;-59
2021/11/04 04:10:27;;;;;;;35.68;23.12;;;;;;;7.72;96.31;144155.80;1834783;77;22570;-60
2021/11/04 04:13:02;;;;;;;36.20;22.07;;;;;;;7.68;96.33;144147.02;1853533;77;22143;-56
2021/11/04 04:15:57;;;;;;;32.98;21.33;;;;;;;7.67;96.36;144143.28;1834961;77;22136;-59
2021/11/04 04:18:52;;;;;;;37.08;24.20;;;;;;;7.66;96.34;144142.05;1834906;77;22132;-56
2021/11/04 04:21:26;;;;;;;35.38;23.12;;;;;;;7.66;96.46;144140.75;1819392;77;28008;-59
2021/11/04 04:24:02;;;;;;;31.55;20.77;;;;;;;7.71;96.29;144153.27;1835016;77;22162;-57
2021/11/04 04:26:37;;;;;;;31.00;22.10;;;;;;;7.72;96.16;144157.05;1819324;77;28527;-57
2021/11/04 04:29:31;;;;;;;32.53;21.57;;;;;;;7.78;95.98;144172.03;1853494;77;22213;-60
2021/11/04 04:32:08;;;;;;;40.75;24.07;;;;;;;7.79;95.89;144173.33;1834858;77;22598;-59
2021/11/04 04:34:43;;;;;;;38.78;23.40;;;;;;;7.79;95.85;144173.33;1835110;77;22175;-60
2021/11/04 04:37:18;;;;;;;41.25;23.22;;;;;;;7.79;95.79;144173.33;1853569;77;22128;-56
2021/11/04 04:39:52;;;;;;;33.20;22.60;;;;;;;7.79;95.71;144173.33;1853604;77;22128;-55
2021/11/04 04:42:27;;;;;;;37.03;22.55;;;;;;;7.79;95.66;144174.56;1853502;77;22602;-60
2021/11/04 04:45:02;;;;;;;38.75;23.12;;;;;;;7.79;95.64;144173.33;1853510;77;22152;-56
2021/11/04 04:47:38;;;;;;;37.42;23.80;;;;;;;7.77;95.78;144168.31;1837784;77;28434;-59
2021/11/04 04:50:13;;;;;;;38.83;23.73;;;;;;;7.78;95.78;144170.80;1853522;77;22547;-57
2021/11/04 04:52:49;;;;;;;33.23;21.95;;;;;;;7.76;95.87;144165.78;1834957;77;20142;-56
2021/11/04 04:55:24;;;;;;;35.70;23.65;;;;;;;7.73;95.97;144158.28;1853515;77;22136;-59
2021/11/04 04:58:00;;;;;;;37.48;23.38;;;;;;;7.68;96.25;144147.02;1834978;77;22155;-57
2021/11/04 05:00:41;;;;;;;37.60;24.72;;;;;;;7.66;96.45;144140.75;1834081;77;22270;-59
2021/11/04 05:03:35;;;;;;;32.20;22.67;;;;;;;7.61;96.66;144130.78;1834951;77;22116;-60
2021/11/04 05:06:10;;;;;;;36.05;22.75;;;;;;;7.56;97.00;144117.03;1834977;77;22554;-61
2021/11/04 05:08:44;;;;;;;34.35;23.18;;;;;;;7.54;97.20;144112.00;1834975;77;22157;-65
2021/11/04 05:11:40;;;;;;;36.68;24.95;;;;;;;7.53;97.49;144109.47;1834737;77;22147;-61
2021/11/04 05:14:15;;;;;;;36.60;23.18;;;;;;;7.52;97.59;144108.23;1834972;77;22187;-57
2021/11/04 05:16:50;;;;;;;33.13;22.60;;;;;;;7.51;97.76;144104.52;1853663;77;22578;-59
2021/11/04 05:19:26;;;;;;;36.42;23.20;;;;;;;7.52;97.91;144108.23;1834925;77;22172;-59
2021/11/04 05:22:02;;;;;;;40.38;26.37;;;;;;;7.54;97.89;144113.25;1834748;77;22152;-56
2021/11/04 05:24:38;;;;;;;33.65;22.80;;;;;;;7.54;97.94;144113.25;1853530;77;22562;-57
2021/11/04 05:27:13;;;;;;;34.13;23.38;;;;;;;7.52;98.13;144108.23;1837802;77;28008;-60
2021/11/04 05:29:48;;;;;;;34.58;24.70;;;;;;;7.57;98.24;144120.75;1832513;78;28451;-60
2021/11/04 05:32:24;;;;;;;35.35;23.30;;;;;;;7.63;98.15;144133.25;1853573;77;22132;-61
2021/11/04 05:34:59;;;;;;;32.90;23.32;;;;;;;7.57;98.19;144120.75;1837776;77;27994;-58
2021/11/04 05:37:55;;;;;;;33.15;23.85;;;;;;;7.61;98.31;144129.53;1837750;77;27990;-61
2021/11/04 05:40:50;;;;;;;33.40;22.73;;;;;;;7.63;98.48;144133.25;1853496;77;22150;-60
2021/11/04 05:43:25;;;;;;;32.75;23.50;;;;;;;7.56;98.55;144118.27;1834951;77;22129;-58
2021/11/04 05:46:01;;;;;;;34.15;23.25;;;;;;;7.52;98.85;144107.00;1848197;78;22127;-62
2021/11/04 05:48:42;;;;;;;39.88;25.05;;;;;;;7.47;99.42;144094.48;1834150;77;22607;-59
2021/11/04 05:51:17;;;;;;;37.13;25.12;;;;;;;7.41;99.68;144080.73;1853536;77;22613;-59
2021/11/04 05:54:01;;;;;;;38.25;24.23;;;;;;;7.36;100.00;144069.47;1815850;79;22661;-59
2021/11/04 05:56:36;;;;;;;38.38;24.98;;;;;;;7.32;100.00;144059.44;1834978;77;22583;-57
2021/11/04 05:59:11;;;;;;;38.98;24.60;;;;;;;7.27;100.00;144046.94;1853540;77;22566;-60
2021/11/04 06:01:46;;;;;;;39.13;25.90;;;;;;;7.22;100.00;144033.19;1835082;77;22152;-55
2021/11/04 06:04:45;;;;;;;39.75;25.70;;;;;;;7.18;100.00;144024.44;1834855;77;22574;-61
2021/11/04 06:07:23;;;;;;;40.25;26.75;;;;;;;7.11;100.00;144008.17;1820949;77;22219;-57
2021/11/04 06:10:01;;;;;;;37.35;25.08;;;;;;;7.11;100.00;144008.17;1844994;77;22208;-56
2021/11/04 06:12:36;;;;;;;38.42;26.87;;;;;;;7.09;100.00;144001.92;1815509;77;22163;-62
2021/11/04 06:15:11;;;;;;;41.42;27.42;;;;;;;7.10;100.00;144005.69;1832639;77;22147;-58
2021/11/04 06:17:46;;;;;;;38.65;27.67;;;;;;;7.10;100.00;144005.69;1804424;77;28090;-60
2021/11/04 06:20:27;;;;;;;38.88;25.08;;;;;;;7.12;100.00;144010.70;1819765;77;22206;-60
2021/11/04 06:23:21;;;;;;;44.18;27.48;;;;;;;7.21;100.00;144030.70;1828755;77;22234;-56
2021/11/04 06:26:03;;;;;;;45.17;27.80;;;;;;;7.25;100.00;144041.97;1828773;77;22631;-56
2021/11/04 06:28:44;;;;;;;40.35;27.77;;;;;;;7.29;100.00;144050.70;1821537;77;22195;-59
2021/11/04 06:31:19;;;;;;;37.50;27.35;;;;;;;7.31;100.00;144055.72;1821272;77;28160;-59
2021/11/04 06:33:54;;;;;;;40.28;26.25;;;;;;;7.32;100.00;144058.20;1853377;77;22160;-59
2021/11/04 06:36:29;;;;;;;51.98;29.07;;;;;;;7.34;100.00;144063.22;1798793;77;22198;-60
2021/11/04 06:39:23;;;;;;;42.45;27.80;;;;;;;7.34;100.00;144063.22;1818829;77;22283;-57
2021/11/04 06:41:57;;;;;;;45.23;27.65;;;;;;;7.37;100.00;144070.70;1853424;77;22156;-58
2021/11/04 06:44:33;;;;;;;45.92;28.90;;;;;;;7.40;100.00;144078.20;1827367;77;22175;-57
2021/11/04 06:47:40;;;;;;;47.10;29.70;;;;;;;7.43;100.00;144085.75;1834663;77;22615;-57
2021/11/04 06:50:37;;;;;;;43.80;27.07;;;;;;;7.51;100.00;144105.75;1816873;77;22183;-61
2021/11/04 06:53:24;;;;;;;40.58;27.40;;;;;;;7.58;100.00;144123.28;1816137;77;28308;-60
2021/11/04 06:56:20;;;;;;;39.15;25.77;;;;;;;7.69;100.00;144148.30;1832001;77;22231;-60
2021/11/04 06:59:24;;;;;;;44.67;27.32;;;;;;;7.76;100.00;144165.78;1821836;77;22175;-61
2021/11/04 07:02:32;;;;;;;44.18;27.87;;;;;;;7.93;100.00;144207.09;1817178;77;22187;-59
2021/11/04 07:05:21;;;;;;;39.95;25.02;;;;;;;8.03;100.00;144233.38;1818419;77;22222;-59
2021/11/04 07:08:25;;;;;;;49.70;25.82;;;;;;;8.07;100.00;144240.91;1831256;77;22574;-62
2021/11/04 07:11:23;;;;;;;42.48;26.95;;;;;;;8.10;100.00;144248.41;1812659;77;22219;-60
2021/11/04 07:14:18;;;;;;;39.13;26.33;;;;;;;8.03;100.00;144232.13;1805750;77;28205;-58
2021/11/04 07:17:14;;;;;;;42.78;29.05;;;;;;;8.02;100.00;144229.64;1816903;77;22184;-59
2021/11/04 07:19:49;;;;;;;37.48;25.65;;;;;;;7.98;100.00;144220.84;1827588;77;22167;-57
2021/11/04 07:22:53;;;;;;;45.10;26.07;;;;;;;7.96;100.00;144214.59;1832022;77;22594;-61
2021/11/04 07:25:29;;;;;;;37.50;25.15;;;;;;;7.88;100.00;144195.83;1816540;77;22577;-63
2021/11/04 07:28:14;;;;;;;40.20;24.95;;;;;;;7.89;100.00;144197.11;1817616;77;22148;-59
2021/11/04 07:30:55;;;;;;;37.83;24.07;;;;;;;7.89;100.00;144197.11;1834807;77;22180;-60
2021/11/04 07:33:51;;;;;;;39.78;27.02;;;;;;;7.93;100.00;144208.34;1817741;77;22208;-63
2021/11/04 07:36:27;;;;;;;45.43;26.65;;;;;;;8.01;100.00;144228.41;1818465;77;22144;-61
2021/11/04 07:39:05;;;;;;;43.87;26.73;;;;;;;8.16;100.00;144263.42;1816394;78;22160;-57
2021/11/04 07:41:40;;;;;;;39.50;25.35;;;;;;;8.38;100.00;144318.50;1815971;77;22119;-64
2021/11/04 07:44:22;;;;;;;42.27;25.27;;;;;;;8.95;100.00;144456.30;1824558;77;22640;-60
2021/11/04 07:46:57;;;;;;;36.40;24.98;;;;;;;9.60;98.19;144616.69;1821557;77;22168;-61
2021/11/04 07:49:35;;;;;;;39.20;25.05;;;;;;;9.65;96.36;144629.22;1825441;77;22199;-59
2021/11/04 07:52:10;;;;;;;40.08;26.52;;;;;;;9.38;96.42;144562.78;1817699;77;20225;-59
2021/11/04 07:54:45;;;;;;;42.67;26.23;;;;;;;9.17;97.54;144511.42;1818593;77;22169;-60
2021/11/04 07:57:27;;;;;;;42.58;25.75;;;;;;;9.00;98.37;144468.83;1828722;77;22199;-59
2021/11/04 08:00:28;;;;;;;40.43;26.05;;;;;;;8.84;99.38;144430.00;1832383;77;22598;-59
2021/11/04 08:03:01;;;;;;;43.85;27.67;;;;;;;8.74;100.00;144404.97;1823268;77;22195;-60
2021/11/04 08:05:36;;;;;;;37.85;25.27;;;;;;;8.67;100.00;144388.66;1819009;77;22192;-63
2021/11/04 08:08:11;;;;;;;43.08;25.35;;;;;;;8.69;100.00;144393.69;1829171;77;22195;-58
2021/11/04 08:11:07;;;;;;;43.55;28.10;;;;;;;8.67;100.00;144388.66;1853375;77;22159;-57
2021/11/04 08:13:43;;;;;;;48.15;29.65;;;;;;;8.69;100.00;144393.69;1837732;77;38315;-57
2021/11/04 08:16:18;;;;;;;44.13;29.48;;;;;;;8.73;100.00;144403.72;1819411;77;27990;-58
2021/11/04 08:18:52;;;;;;;46.85;28.90;;;;;;;8.84;100.00;144430.00;1834967;77;22132;-61
2021/11/04 08:21:27;;;;;;;49.95;28.45;;;;;;;8.87;100.00;144438.75;1820480;77;22144;-60
2021/11/04 08:24:21;;;;;;;53.98;27.90;;;;;;;8.95;100.00;144456.30;1823445;77;22188;-57
2021/11/04 08:26:57;;;;;;;49.53;29.10;;;;;;;9.00;100.00;144468.83;1817513;77;22169;-61
2021/11/04 08:29:50;;;;;;;51.75;27.13;;;;;;;9.03;100.00;144476.33;1780438;79;23871;-57
2021/11/04 08:32:31;;;;;;;53.83;29.70;;;;;;;9.10;100.00;144493.88;1813618;77;22246;-56
2021/11/04 08:35:25;;;;;;;53.48;29.65;;;;;;;9.12;100.00;144498.91;1815016;77;22176;-57
2021/11/04 08:38:20;;;;;;;44.50;27.10;;;;;;;9.15;100.00;144506.41;1824931;77;22188;-60
2021/11/04 08:40:54;;;;;;;43.92;25.43;;;;;;;9.21;100.00;144521.47;1825141;77;22175;-58
2021/11/04 08:43:35;;;;;;;45.08;25.45;;;;;;;9.29;100.00;144541.50;1813398;77;22631;-58
2021/11/04 08:46:30;;;;;;;45.58;28.27;;;;;;;9.39;100.00;144564.03;1817991;77;22575;-60
2021/11/04 08:49:05;;;;;;;42.45;26.90;;;;;;;9.53;100.00;144600.37;1819449;77;22599;-61
2021/11/04 08:51:40;;;;;;;53.25;28.10;;;;;;;9.71;99.80;144644.23;1818609;77;22602;-58
2021/11/04 08:54:22;;;;;;;45.73;25.77;;;;;;;9.94;98.59;144700.64;1816970;77;22638;-62
2021/11/04 08:56:57;;;;;;;37.03;25.08;;;;;;;10.16;97.85;144753.33;1820262;77;20115;-57
2021/11/04 08:59:33;;;;;;;45.75;26.10;;;;;;;10.26;96.59;144777.16;1821919;77;22115;-55
2021/11/04 09:02:17;;;;;;;37.70;25.88;;;;;;;10.24;96.45;144772.12;1803516;77;28136;-56
2021/11/04 09:04:52;;;;;;;40.12;24.18;;;;;;;10.17;96.53;144755.81;1821022;77;22163;-59
2021/11/04 09:07:27;;;;;;;38.88;25.08;;;;;;;10.18;96.78;144758.34;1815861;77;22147;-57
2021/11/04 09:10:07;;;;;;;43.65;24.05;;;;;;;10.19;96.80;144762.08;1853010;77;22187;-57
2021/11/04 09:12:42;;;;;;;41.02;25.60;;;;;;;10.24;96.61;144772.12;1853015;77;22155;-59
2021/11/04 09:15:39;;;;;;;49.67;27.67;;;;;;;10.14;97.00;144749.55;1841727;78;22690;-59
2021/11/04 09:18:14;;;;;;;40.10;24.30;;;;;;;10.27;97.03;144779.64;1791822;77;22183;-59
2021/11/04 09:20:50;;;;;;;34.92;24.07;;;;;;;10.39;96.52;144809.80;1834495;77;22583;-59
2021/11/04 09:23:25;;;;;;;35.20;23.02;;;;;;;10.43;96.22;144819.80;1833979;77;22168;-61
2021/11/04 09:26:18;;;;;;;36.85;24.85;;;;;;;10.52;96.15;144842.39;1814374;77;22655;-56
2021/11/04 09:28:54;;;;;;;35.48;24.57;;;;;;;10.63;95.76;144870.02;1834699;77;22643;-58
2021/11/04 09:31:29;;;;;;;34.23;23.35;;;;;;;10.72;95.51;144890.08;1834693;77;22199;-56
2021/11/04 09:34:29;;;;;;;37.93;24.15;;;;;;;10.93;95.05;144942.75;1833976;77;22622;-56
2021/11/04 09:37:06;;;;;;;33.25;23.45;;;;;;;11.11;94.30;144985.41;1834815;77;22156;-56
2021/11/04 09:40:10;;;;;;;31.37;22.15;;;;;;;11.29;93.56;145031.81;1853264;77;22293;-60
2021/11/04 09:42:51;;;;;;;34.43;21.33;;;;;;;11.46;93.12;145073.25;1850130;77;22176;-59
2021/11/04 09:45:29;;;;;;;32.15;22.55;;;;;;;11.50;92.38;145082.06;1789896;77;28546;-60
2021/11/04 09:48:25;;;;;;;34.58;22.48;;;;;;;11.51;92.49;145085.80;1824915;77;22172;-59
2021/11/04 09:51:00;;;;;;;32.10;20.97;;;;;;;11.53;92.70;145089.59;1853338;77;20209;-59
2021/11/04 09:53:35;;;;;;;31.37;21.37;;;;;;;11.52;92.98;145087.05;1834807;77;22133;-59
2021/11/04 09:56:11;;;;;;;35.10;23.22;;;;;;;11.46;93.46;145073.25;1803328;77;28102;-60
2021/11/04 09:59:05;;;;;;;34.13;22.45;;;;;;;11.58;93.58;145100.89;1817146;77;22646;-60
2021/11/04 10:01:49;;;;;;;29.70;21.05;;;;;;;11.60;93.57;145107.17;1835770;77;22147;-61
2021/11/04 10:04:34;;;;;;;30.97;20.30;;;;;;;11.67;93.61;145123.45;1816843;77;22204;-58
2021/11/04 10:07:09;;;;;;;32.35;20.92;;;;;;;11.76;93.39;145146.08;1825398;77;22618;-57
2021/11/04 10:10:05;;;;;;;31.73;20.30;;;;;;;11.82;93.38;145161.12;1821417;77;22582;-58
2021/11/04 10:13:08;;;;;;;29.35;20.95;;;;;;;11.92;92.85;145186.28;1819002;77;22234;-56
2021/11/04 10:15:43;;;;;;;28.00;20.02;;;;;;;12.07;92.10;145222.70;1817109;77;22120;-60
2021/11/04 10:18:22;;;;;;;28.20;20.40;;;;;;;12.13;91.57;145236.50;1834665;77;22241;-57
2021/11/04 10:21:05;;;;;;;29.45;20.23;;;;;;;12.18;91.18;145249.06;1842973;77;22227;-59
2021/11/04 10:23:48;;;;;;;32.48;20.50;;;;;;;12.21;90.67;145256.58;1817772;77;22196;-57
2021/11/04 10:26:33;;;;;;;31.93;19.42;;;;;;;12.28;90.39;145274.17;1834018;77;22180;-61
2021/11/04 10:29:12;;;;;;;32.15;20.50;;;;;;;12.41;90.00;145304.33;1834846;77;22161;-61
2021/11/04 10:31:51;;;;;;;30.23;20.27;;;;;;;12.52;89.01;145332.00;1830729;77;22188;-56
2021/11/04 10:34:35;;;;;;;32.80;21.17;;;;;;;12.60;88.76;145352.08;1853465;77;22123;-59
2021/11/04 10:37:29;;;;;;;30.95;19.12;;;;;;;12.68;88.21;145372.17;1834882;77;22160;-58
2021/11/04 10:40:22;;;;;;;32.15;20.72;;;;;;;12.62;87.07;145357.11;1830318;77;22148;-60
2021/11/04 10:43:16;;;;;;;38.63;22.55;;;;;;;12.59;86.99;145349.53;1827776;77;22171;-56
2021/11/04 10:46:12;;;;;;;32.73;21.10;;;;;;;12.61;87.18;145354.56;1813157;77;22196;-58
2021/11/04 10:49:04;;;;;;;33.18;19.90;;;;;;;12.68;86.40;145372.17;1834713;77;22264;-58
2021/11/04 10:52:01;;;;;;;33.90;22.65;;;;;;;12.68;85.64;145372.17;1834831;77;22136;-60
2021/11/04 10:54:56;;;;;;;38.28;20.70;;;;;;;12.69;85.76;145373.42;1834828;77;22171;-58
2021/11/04 10:57:49;;;;;;;39.27;21.25;;;;;;;12.75;85.51;145389.77;1834769;77;22557;-61
2021/11/04 11:00:25;;;;;;;32.38;20.57;;;;;;;12.79;85.12;145399.78;1834658;77;22575;-58
2021/11/04 11:03:22;;;;;;;31.55;20.20;;;;;;;12.88;84.96;145419.94;1834989;77;22133;-61
2021/11/04 11:06:08;;;;;;;31.17;20.60;;;;;;;13.04;84.09;145460.13;1837876;77;28483;-57
2021/11/04 11:08:44;;;;;;;30.88;20.80;;;;;;;13.18;83.05;145495.33;1840103;77;22120;-55
2021/11/04 11:11:45;;;;;;;29.32;20.50;;;;;;;13.23;82.54;145507.89;1824050;77;22579;-57
2021/11/04 11:14:29;;;;;;;29.00;19.30;;;;;;;13.24;82.65;145510.39;1833598;77;22148;-56
2021/11/04 11:17:23;;;;;;;34.08;19.95;;;;;;;13.21;82.27;145502.86;1834808;77;22136;-59
2021/11/04 11:20:17;;;;;;;30.68;20.72;;;;;;;13.21;82.28;145501.61;1834663;77;22133;-58
2021/11/04 11:23:15;;;;;;;30.88;17.73;;;;;;;13.40;81.81;145549.39;1853365;77;22131;-56
2021/11/04 11:25:57;;;;;;;29.57;20.23;;;;;;;13.64;81.06;145608.50;1853363;77;22187;-59
2021/11/04 11:28:39;;;;;;;32.30;19.25;;;;;;;13.83;79.90;145653.77;1853393;77;20214;-57
2021/11/04 11:31:36;;;;;;;35.00;20.68;;;;;;;13.92;79.18;145676.41;1834898;77;22128;-56
2021/11/04 11:34:34;;;;;;;28.65;19.23;;;;;;;13.97;78.86;145687.69;1834620;77;22188;-59
2021/11/04 11:37:28;;;;;;;25.90;18.77;;;;;;;13.74;79.21;145632.41;1834625;77;22223;-59
2021/11/04 11:40:25;;;;;;;29.02;19.07;;;;;;;13.49;80.06;145570.80;1853153;77;22156;-59
2021/11/04 11:43:05;;;;;;;28.70;18.25;;;;;;;13.33;80.92;145530.53;1834888;77;22161;-56
2021/11/04 11:45:50;;;;;;;26.45;18.23;;;;;;;13.20;81.58;145500.38;1834919;77;22132;-57
2021/11/04 11:48:43;;;;;;;30.85;19.85;;;;;;;13.14;82.12;145484.00;1834811;77;22165;-58
2021/11/04 11:51:47;;;;;;;28.73;18.30;;;;;;;13.08;82.53;145470.19;1834745;77;22197;-60
2021/11/04 11:54:41;;;;;;;27.15;17.12;;;;;;;13.03;82.78;145457.63;1834853;77;22161;-60
2021/11/04 11:57:34;;;;;;;26.87;18.50;;;;;;;12.99;83.32;145448.80;1853496;77;22144;-58
2021/11/04 12:00:57;;;;;;;32.53;18.65;;;;;;;12.97;83.60;145442.52;1833859;77;22633;-56
2021/11/04 12:03:39;;;;;;;30.80;18.80;;;;;;;13.01;83.57;145452.59;1834876;77;22196;-56
2021/11/04 12:06:43;;;;;;;23.00;18.07;;;;;;;13.07;83.26;145467.66;1818484;77;38315;-59
2021/11/04 12:09:41;;;;;;;27.20;18.87;;;;;;;13.10;83.10;145475.23;1835053;77;22591;-55
2021/11/04 12:12:46;;;;;;;25.10;17.77;;;;;;;13.10;83.26;145475.23;1834864;77;22153;-58
2021/11/04 12:15:21;;;;;;;28.20;18.42;;;;;;;13.06;83.32;145463.91;1834953;77;22156;-59
2021/11/04 12:18:21;;;;;;;28.98;18.48;;;;;;;13.04;83.80;145461.37;1833966;77;22179;-56
2021/11/04 12:20:58;;;;;;;33.63;19.20;;;;;;;13.01;84.18;145453.84;1834576;77;22167;-57
2021/11/04 12:23:57;;;;;;;30.23;19.15;;;;;;;12.97;84.62;145442.52;1853425;77;22135;-58
2021/11/04 12:27:09;;;;;;;30.35;18.77;;;;;;;12.98;85.08;145445.06;1834094;77;22189;-60
2021/11/04 12:30:27;;;;;;;29.35;20.35;;;;;;;12.90;85.55;145424.92;1834910;77;22133;-62
2021/11/04 12:33:11;;;;;;;28.83;19.40;;;;;;;12.87;86.05;145417.39;1818611;77;28409;-56
2021/11/04 12:36:05;;;;;;;35.48;20.40;;;;;;;12.91;86.23;145428.70;1834902;77;22692;-56
2021/11/04 12:38:44;;;;;;;33.83;20.12;;;;;;;12.90;86.30;145424.92;1834844;77;22152;-56
2021/11/04 12:41:51;;;;;;;29.15;20.35;;;;;;;12.88;86.56;145421.19;1834681;77;22587;-56
2021/11/04 12:44:47;;;;;;;32.40;19.65;;;;;;;12.94;86.76;145434.98;1834891;77;22168;-60
2021/11/04 12:47:42;;;;;;;30.75;20.27;;;;;;;13.04;86.56;145461.37;1834723;77;22157;-59
2021/11/04 12:50:38;;;;;;;29.92;20.37;;;;;;;13.25;85.83;145511.64;1853239;77;22203;-59
2021/11/04 12:53:14;;;;;;;39.38;21.23;;;;;;;13.41;85.24;145550.69;1834782;77;22129;-57
2021/11/04 12:55:52;;;;;;;28.85;19.67;;;;;;;13.48;84.89;145567.00;1853382;77;22180;-60
2021/11/04 12:58:53;;;;;;;28.47;18.85;;;;;;;13.47;84.80;145565.75;1834818;77;22136;-58
2021/11/04 13:01:28;;;;;;;34.90;19.25;;;;;;;13.44;85.10;145558.22;1834735;77;22161;-58
2021/11/04 13:04:30;;;;;;;36.40;20.62;;;;;;;13.41;85.36;145551.94;1834698;77;22156;-59
2021/11/04 13:07:32;;;;;;;26.50;18.50;;;;;;;13.43;85.43;145555.69;1843297;77;22173;-57
2021/11/04 13:10:29;;;;;;;30.08;20.70;;;;;;;13.31;85.91;145525.55;1853511;77;22182;-62
2021/11/04 13:13:05;;;;;;;32.67;19.90;;;;;;;13.15;86.62;145487.80;1834676;77;22204;-59
2021/11/04 13:15:41;;;;;;;27.20;20.88;;;;;;;13.01;87.34;145453.84;1837670;77;28108;-61
2021/11/04 13:18:40;;;;;;;27.07;19.25;;;;;;;12.97;87.78;145442.52;1853418;77;22596;-58
2021/11/04 13:21:23;;;;;;;31.40;21.62;;;;;;;12.92;88.15;145429.95;1834523;77;22593;-56
2021/11/04 13:24:17;;;;;;;29.35;20.80;;;;;;;12.84;88.66;145409.86;1930201;74;22120;-60
2021/11/04 13:27:16;;;;;;;28.92;20.23;;;;;;;12.74;89.30;145385.98;1834911;77;22270;-59
2021/11/04 13:29:54;;;;;;;32.23;20.50;;;;;;;12.67;89.62;145369.67;1853411;77;22163;-57
2021/11/04 13:32:52;;;;;;;33.13;21.73;;;;;;;12.57;90.41;145344.56;1842005;77;22648;-57
2021/11/04 13:35:43;;;;;;;37.00;21.60;;;;;;;12.46;91.14;145316.89;1834940;77;22124;-56
2021/11/04 13:38:50;;;;;;;28.40;19.50;;;;;;;12.36;91.78;145294.31;1834848;77;22160;-57
2021/11/04 13:41:50;;;;;;;33.73;21.15;;;;;;;12.27;92.46;145271.69;1834738;77;22133;-56
2021/11/04 13:44:28;;;;;;;32.80;19.12;;;;;;;12.22;92.96;145259.13;1853587;77;22202;-58
2021/11/04 13:47:04;;;;;;;30.82;21.20;;;;;;;12.18;93.31;145249.06;1834890;77;22132;-61
2021/11/04 13:49:58;;;;;;;33.85;19.55;;;;;;;12.13;93.72;145237.75;1853349;77;22139;-62
2021/11/04 13:52:35;;;;;;;29.23;20.45;;;;;;;12.11;94.05;145231.47;1843145;78;22199;-61
2021/11/04 13:55:29;;;;;;;28.55;19.55;;;;;;;12.07;94.35;145221.45;1834867;77;22598;-57
2021/11/04 13:58:04;;;;;;;29.40;20.12;;;;;;;12.01;94.75;145206.36;1834947;77;22567;-59
2021/11/04 14:01:05;;;;;;;31.73;20.43;;;;;;;11.97;95.11;145196.34;1834649;77;22159;-56
2021/11/04 14:03:41;;;;;;;33.28;21.40;;;;;;;11.93;95.52;145188.81;1853391;77;22128;-61
2021/11/04 14:06:17;;;;;;;36.15;23.75;;;;;;;11.89;95.99;145178.75;1834632;77;22181;-59